createdAt,value
2023-04-12T00:03:56.657Z,97708.00
2023-04-12T00:09:18.477Z,97700.00
2023-04-12T00:14:39.978Z,97690.00
2023-04-12T00:20:02.231Z,97671.00
2023-04-12T00:25:23.678Z,97670.00
2023-04-12T00:30:46.086Z,97661.00
2023-04-12T00:36:08.027Z,97657.00
2023-04-12T00:41:29.537Z,97644.00
2023-04-12T00:46:51.572Z,97635.00
2023-04-12T00:52:15.807Z,97634.00
2023-04-12T00:57:41.241Z,97631.00
2023-04-12T01:03:05.490Z,97643.00
2023-04-12T01:08:53.773Z,97630.00
2023-04-12T01:14:34.246Z,97624.00
2023-04-12T01:20:14.099Z,97615.00
2023-04-12T01:25:49.010Z,97613.00
2023-04-12T01:31:13.139Z,97594.00
2023-04-12T01:36:36.722Z,97582.00
2023-04-12T01:41:57.979Z,97573.00
2023-04-12T01:47:19.539Z,97561.00
2023-04-12T01:52:52.840Z,97548.00
2023-04-12T01:58:19.625Z,97544.00
2023-04-12T02:03:42.883Z,97551.00
2023-04-12T02:09:06.506Z,97546.00
2023-04-12T02:14:28.689Z,97539.00
2023-04-12T02:19:49.930Z,97541.00
2023-04-12T02:25:14.036Z,97542.00
2023-04-12T02:30:38.557Z,97526.00
2023-04-12T02:36:02.805Z,97516.00
2023-04-12T02:41:24.946Z,97518.00
2023-04-12T02:46:47.639Z,97501.00
2023-04-12T02:52:10.647Z,97501.00
2023-04-12T02:57:39.911Z,97493.00
2023-04-12T03:03:03.883Z,97486.00
2023-04-12T03:08:26.693Z,97472.00
2023-04-12T03:13:51.142Z,97462.00
2023-04-12T03:19:13.352Z,97459.00
2023-04-12T03:24:35.679Z,97448.00
2023-04-12T03:29:57.643Z,97443.00
2023-04-12T03:35:19.746Z,97445.00
2023-04-12T03:40:41.255Z,97446.00
2023-04-12T03:46:07.040Z,97439.00
2023-04-12T03:51:30.887Z,97434.00
2023-04-12T03:56:57.764Z,97425.00
2023-04-12T04:02:40.622Z,97426.00
2023-04-12T04:08:03.121Z,97419.00
2023-04-12T04:13:32.042Z,97406.00
2023-04-12T04:18:57.835Z,97401.00
2023-04-12T04:24:19.540Z,97394.00
2023-04-12T04:29:45.741Z,97394.00
2023-04-12T04:35:10.103Z,97406.00
2023-04-12T04:40:44.167Z,97404.00
2023-04-12T04:46:07.211Z,97393.00
2023-04-12T04:51:28.728Z,97371.00
2023-04-12T04:56:52.311Z,97372.00
2023-04-12T05:02:16.698Z,97367.00
2023-04-12T05:07:39.465Z,97364.00
2023-04-12T05:13:01.355Z,97360.00
2023-04-12T05:18:23.345Z,97352.00
2023-04-12T05:23:47.296Z,97359.00
2023-04-12T05:29:08.821Z,97346.00
2023-04-12T05:34:30.543Z,97333.00
2023-04-12T05:39:52.132Z,97323.00
2023-04-12T05:45:13.695Z,97312.00
2023-04-12T05:50:37.309Z,97327.00
2023-04-12T05:55:59.225Z,97314.00
2023-04-12T06:01:21.376Z,97298.00
2023-04-12T06:06:43.728Z,97284.00
2023-04-12T06:12:05.161Z,97282.00
2023-04-12T06:17:30.231Z,97273.00
2023-04-12T06:22:51.857Z,97255.00
2023-04-12T06:28:13.631Z,97263.00
2023-04-12T06:33:38.916Z,97267.00
2023-04-12T06:39:04.237Z,97246.00
2023-04-12T06:44:27.284Z,97248.00
2023-04-12T06:49:49.056Z,97237.00
2023-04-12T06:55:10.891Z,97240.00
2023-04-12T07:00:32.448Z,97230.00
2023-04-12T07:05:56.901Z,97229.00
2023-04-12T07:11:21.531Z,97220.00
2023-04-12T07:16:46.562Z,97221.00
2023-04-12T07:22:08.487Z,97212.00
2023-04-12T07:27:29.726Z,97191.00
2023-04-12T07:32:51.256Z,97182.00
2023-04-12T07:38:13.328Z,97174.00
2023-04-12T07:43:35.611Z,97159.00
2023-04-12T07:48:57.067Z,97149.00
2023-04-12T07:54:18.768Z,97147.00
2023-04-12T07:59:40.252Z,97126.00
2023-04-12T08:05:01.992Z,97136.00
2023-04-12T08:10:23.585Z,97124.00
2023-04-12T08:15:47.339Z,97125.00
2023-04-12T08:21:09.092Z,97112.00
2023-04-12T08:26:30.704Z,97106.00
2023-04-12T08:31:53.940Z,97100.00
2023-04-12T08:37:17.099Z,97084.00
2023-04-12T08:42:39.445Z,97091.00
2023-04-12T08:48:03.341Z,97080.00
2023-04-12T08:53:24.999Z,97089.00
2023-04-12T08:58:50.724Z,97082.00
2023-04-12T09:04:12.879Z,97079.00
2023-04-12T09:09:50.919Z,97056.00
2023-04-12T09:15:14.619Z,97051.00
2023-04-12T09:20:37.347Z,97058.00
2023-04-12T09:25:58.808Z,97057.00
2023-04-12T09:31:20.088Z,97044.00
2023-04-12T09:36:42.060Z,97040.00
2023-04-12T09:42:18.017Z,97032.00
2023-04-12T09:47:49.586Z,97020.00
2023-04-12T09:53:18.509Z,97005.00
2023-04-12T09:58:40.518Z,97004.00
2023-04-12T10:04:02.827Z,96984.00
2023-04-12T10:09:24.375Z,96978.00
2023-04-12T10:14:47.512Z,96970.00
2023-04-12T10:20:10.194Z,96965.00
2023-04-12T10:25:32.077Z,96962.00
2023-04-12T10:30:58.176Z,96945.00
2023-04-12T10:36:19.507Z,96924.00
2023-04-12T10:42:21.579Z,96921.00
2023-04-12T10:47:49.371Z,96925.00
2023-04-12T10:53:13.494Z,96921.00
2023-04-12T10:58:50.784Z,96891.00
2023-04-12T11:04:18.491Z,96893.00
2023-04-12T11:10:02.745Z,96889.00
2023-04-12T11:15:29.063Z,96867.00
2023-04-12T11:20:53.701Z,96870.00
2023-04-12T11:26:21.333Z,96854.00
2023-04-12T11:31:42.544Z,96853.00
2023-04-12T11:37:08.247Z,96832.00
2023-04-12T11:42:30.131Z,96831.00
2023-04-12T11:47:52.339Z,96829.00
2023-04-12T11:53:14.144Z,96822.00
2023-04-12T11:58:35.298Z,96815.00
2023-04-12T12:03:57.774Z,96807.00
2023-04-12T12:09:19.389Z,96806.00
2023-04-12T12:14:43.702Z,96813.00
2023-04-12T12:20:05.703Z,96804.00
2023-04-12T12:25:29.205Z,96801.00
2023-04-12T12:30:54.056Z,96798.00
2023-04-12T12:36:21.032Z,96796.00
2023-04-12T12:41:42.700Z,96799.00
2023-04-12T12:47:13.579Z,96803.00
2023-04-12T12:52:36.298Z,96815.00
2023-04-12T12:58:06.728Z,96812.00
2023-04-12T13:03:29.628Z,96812.00
2023-04-12T13:08:52.366Z,96798.00
2023-04-12T13:14:13.968Z,96789.00
2023-04-12T13:19:36.039Z,96789.00
2023-04-12T13:24:57.103Z,96773.00
2023-04-12T13:30:19.628Z,96763.00
2023-04-12T13:35:41.036Z,96754.00
2023-04-12T13:41:02.386Z,96749.00
2023-04-12T13:46:24.108Z,96757.00
2023-04-12T13:51:45.728Z,96740.00
2023-04-12T13:57:08.166Z,96736.00
2023-04-12T14:02:31.471Z,96740.00
2023-04-12T14:07:53.756Z,96724.00
2023-04-12T14:13:15.284Z,96729.00
2023-04-12T14:18:36.567Z,96721.00
2023-04-12T14:23:57.968Z,96712.00
2023-04-12T14:29:19.334Z,96709.00
2023-04-12T14:34:42.997Z,96692.00
2023-04-12T14:40:06.737Z,96695.00
2023-04-12T14:45:28.043Z,96687.00
2023-04-12T14:50:49.649Z,96693.00
2023-04-12T14:56:28.375Z,96694.00
2023-04-12T15:01:56.715Z,96685.00
2023-04-12T15:07:18.093Z,96683.00
2023-04-12T15:12:39.698Z,96680.00
2023-04-12T15:18:03.322Z,96676.00
2023-04-12T15:23:24.801Z,96667.00
2023-04-12T15:28:46.304Z,96675.00
2023-04-12T15:34:07.768Z,96662.00
2023-04-12T15:39:29.386Z,96653.00
2023-04-12T15:44:51.204Z,96645.00
2023-04-12T15:50:13.275Z,96636.00
2023-04-12T15:55:35.043Z,96636.00
2023-04-12T16:00:56.307Z,96617.00
2023-04-12T16:06:22.046Z,96606.00
2023-04-12T16:11:44.191Z,96578.00
2023-04-12T16:17:06.346Z,96593.00
2023-04-12T16:22:27.832Z,96584.00
2023-04-12T16:27:49.500Z,96578.00
2023-04-12T16:33:11.075Z,96577.00
2023-04-12T16:38:32.645Z,96572.00
2023-04-12T16:43:55.551Z,96564.00
2023-04-12T16:49:19.682Z,96558.00
2023-04-12T16:54:41.586Z,96559.00
2023-04-12T17:00:06.224Z,96556.00
2023-04-12T17:05:27.791Z,96550.00
2023-04-12T17:10:49.633Z,96554.00
2023-04-12T17:16:11.222Z,96553.00
2023-04-12T17:21:41.019Z,96555.00
2023-04-12T17:27:02.845Z,96558.00
2023-04-12T17:32:24.335Z,96557.00
2023-04-12T17:37:46.192Z,96546.00
2023-04-12T17:43:07.876Z,96537.00
2023-04-12T17:48:32.716Z,96549.00
2023-04-12T17:53:56.579Z,96547.00
2023-04-12T17:59:18.437Z,96534.00
2023-04-12T18:04:41.324Z,96528.00
2023-04-12T18:10:03.379Z,96544.00
2023-04-12T18:15:24.713Z,96540.00
2023-04-12T18:20:45.864Z,96544.00
2023-04-12T18:26:07.329Z,96557.00
2023-04-12T18:31:28.823Z,96533.00
2023-04-12T18:36:50.408Z,96529.00
2023-04-12T18:42:11.958Z,96527.00
2023-04-12T18:47:33.650Z,96533.00
2023-04-12T18:52:55.152Z,96543.00
2023-04-12T18:58:17.130Z,96531.00
2023-04-12T19:03:38.879Z,96532.00
2023-04-12T19:09:00.610Z,96520.00
2023-04-12T19:14:22.434Z,96506.00
2023-04-12T19:19:43.828Z,96501.00
2023-04-12T19:25:05.676Z,96483.00
2023-04-12T19:30:28.910Z,96489.00
2023-04-12T19:35:51.847Z,96498.00
2023-04-12T19:41:13.515Z,96496.00
2023-04-12T19:46:39.029Z,96510.00
2023-04-12T19:52:00.711Z,96515.00
2023-04-12T19:57:23.007Z,96519.00
2023-04-12T20:02:44.674Z,96514.00
2023-04-12T20:08:06.191Z,96539.00
2023-04-12T20:13:28.857Z,96550.00
2023-04-12T20:18:55.771Z,96558.00
2023-04-12T20:24:17.092Z,96554.00
2023-04-12T20:29:39.724Z,96555.00
2023-04-12T20:35:02.820Z,96567.00
2023-04-12T20:40:27.238Z,96563.00
2023-04-12T20:45:49.013Z,96580.00
2023-04-12T20:51:16.974Z,96569.00
2023-04-12T20:56:39.141Z,96563.00
2023-04-12T21:02:03.965Z,96562.00
2023-04-12T21:07:26.280Z,96575.00
2023-04-12T21:12:47.657Z,96586.00
2023-04-12T21:18:09.331Z,96593.00
2023-04-12T21:23:30.672Z,96568.00
2023-04-12T21:28:52.273Z,96570.00
2023-04-12T21:34:13.793Z,96566.00
2023-04-12T21:39:38.500Z,96552.00
2023-04-12T21:44:59.977Z,96582.00
2023-04-12T21:50:21.289Z,96573.00
2023-04-12T21:55:42.830Z,96579.00
2023-04-12T22:01:04.584Z,96587.00
2023-04-12T22:06:26.320Z,96589.00
2023-04-12T22:11:49.171Z,96592.00
2023-04-12T22:17:10.689Z,96605.00
2023-04-12T22:22:32.473Z,96615.00
2023-04-12T22:27:57.864Z,96619.00
2023-04-12T22:33:19.042Z,96627.00
2023-04-12T22:38:40.245Z,96643.00
2023-04-12T22:44:01.864Z,96641.00
2023-04-12T22:49:30.860Z,96637.00
2023-04-12T22:54:52.290Z,96651.00
2023-04-12T23:00:16.950Z,96652.00
2023-04-12T23:05:39.024Z,96647.00
2023-04-12T23:11:03.625Z,96655.00
2023-04-12T23:16:25.768Z,96665.00
2023-04-12T23:21:47.172Z,96657.00
2023-04-12T23:27:09.744Z,96664.00
2023-04-12T23:32:30.945Z,96659.00
2023-04-12T23:37:53.551Z,96678.00
2023-04-12T23:43:14.766Z,96680.00
2023-04-12T23:48:36.392Z,96669.00
2023-04-12T23:53:58.081Z,96664.00
2023-04-12T23:59:19.849Z,96666.00
